Share

Catawba, WI (54515)

Downtown (BP station) (KWIPHILL1) Elev 1430 ft | 45.69 °N, 90.40 °W | Change Station

Current weather conditions updated 4 minutes ago

Overcast
Overcast
32.6 °F
Feels Like 33 °F
N
0.0
Wind Variable Wind from NNE
Gusts 2.0 mph
Sunrise 6:13 AM
Sunset 7:51 PM
Moon Waning Gibbous

Today is forecast to be Warmer than yesterday.

Pressure 30.08 in
Visibility 4.0 miles
Clouds Overcast 800 ft
Windchill 33 °F
Dew Point 32 °F
Humidity 97%
Rainfall 0.00 in
Snow Depth Not available.
UV 2 out of 16
Pollen 5.50 out of 12
Air Quality Not available.
Flu Activity Sporadic
METAR KPBH 171515Z AUTO 00000KT 4SM BR OVC008 00/00 A3008 RMK AO2 T00010000

More Conditions Fewer Conditions

Pressure 30.08 in
Visibility 4.0 miles
Clouds Overcast 800 ft
Windchill 33 °F
Dew Point 32 °F
Humidity 97%
Rainfall 0.00 in
Snow Depth Not available.
UV 2 out of 16
Pollen 5.50 out of 12
Air Quality Not available.
Flu Activity Sporadic
METAR KPBH 171515Z AUTO 00000KT 4SM BR OVC008 00/00 A3008 RMK AO2 T00010000

More Conditions Fewer Conditions

10-Day Forecast

Almanac

Astronomy

Apr. 17, 2014 Rise Set
Actual Time 6:13 AM CDT 7:51 PM CDT
Civil Twilight 5:41 AM CDT 8:22 PM CDT
Nautical Twilight 5:04 AM CDT 9:00 PM CDT
Astronomical Twilight 4:23 AM CDT 9:41 PM CDT
Moon 10:43 PM CDT 7:39 AM CDT
Length of Visible Light 14h 40m
Length of Day
13h 38m
Tomorrow will be 3m 2s longer.
Waning Gibbous, 94% of the Moon is Illuminated
Today
Waning Gibbous
Apr 22
Last Quarter
Apr 29
New
May 6
First Quarter
May 14
Full

Today's Extremes

State Highs State Lows

Community

  • New Day
    New Day
  • Lake Michigan Sunrise
    Lake Michigan Sunrise
  • sunset from izmir, narlıdere
    sunset from izmir, narlıdere
  • oregon cherry
    oregon cherry
  • Sunset over the Bay
    Sunset over the Bay

WunderPhotos

Upload Photos

1,702,030 photos uploaded!

Nearby

Snow Depth

Station Depth Elevation
No new snow has been reported.

Coastal Water Temperatures

Place Temperature
No Stations Reporting

Earthquake Activity

City Distance Mag. Time & Date
No recent earthquake activity has been reported nearby.
Minimum magnitude displayed is 2.5.

Nearby Weather Stations

Station Location Temp. Windchill Dew Point Humidity Wind Precip. Elev Updated Type
Cummings Maple Acres, Phillips, WI 32.5 °F 32 °F 32 °F 98% North  at  0.0 mph 0.00 in / hr 1529 ft 7:08 AM CDT Rapid Fire
Downtown (BP station), Phillips, WI 32.6 °F 33 °F 32 °F 97% NNE  at  0.0 mph 0.01 in / hr 1430 ft 10:34 AM CDT Normal
Fifield West, Park Falls, WI 33.3 °F 33 °F 33 °F 98% West  at  0.0 mph - / hr 1450 ft 10:23 AM CDT Normal
WIDOT Fifield - STH 13 south of Fifield, Fifield, WI 33 °F 33 °F 33 °F 99% NE  at  0 mph 0.00 in / hr 1450 ft 10:00 AM CDT MADIS

Show More Stations Show Fewer Stations

What do you think?

We're not finished. Please let us know what you like, what you don't like, and what you are still missing.